sensor_id;sensor_type;location;lat;lon;timestamp;pressure;altitude;pressure_sealevel;temperature;humidity
57904;BME280;43720;47.462;19.030;2022-11-09T04:46:58;100821.28;;;9.11;100.00
57904;BME280;43720;47.462;19.030;2022-11-09T04:50:00;100824.56;;;9.03;100.00
57904;BME280;43720;47.462;19.030;2022-11-09T04:53:11;100831.59;;;9.06;100.00
57904;BME280;43720;47.462;19.030;2022-11-09T04:56:13;100831.19;;;8.92;100.00
57904;BME280;43720;47.462;19.030;2022-11-09T04:59:15;100841.94;;;9.03;100.00
57904;BME280;43720;47.462;19.030;2022-11-09T05:02:18;100841.94;;;9.03;100.00
57904;BME280;43720;47.462;19.030;2022-11-09T05:05:20;100840.22;;;9.03;100.00
57904;BME280;43720;47.462;19.030;2022-11-09T05:08:22;100830.09;;;9.16;100.00
57904;BME280;43720;47.462;19.030;2022-11-09T05:11:24;100839.31;;;9.35;100.00
57904;BME280;43720;47.462;19.030;2022-11-09T05:14:27;100837.56;;;9.34;100.00
57904;BME280;43720;47.462;19.030;2022-11-09T05:17:29;100830.25;;;9.53;100.00
57904;BME280;43720;47.462;19.030;2022-11-09T05:20:32;100827.25;;;9.40;100.00
57904;BME280;43720;47.462;19.030;2022-11-09T05:23:34;100825.81;;;9.51;100.00
57904;BME280;43720;47.462;19.030;2022-11-09T05:26:54;100830.94;;;9.46;100.00
57904;BME280;43720;47.462;19.030;2022-11-09T05:29:58;100823.69;;;9.36;100.00
57904;BME280;43720;47.462;19.030;2022-11-09T05:33:00;100829.69;;;9.32;100.00
57904;BME280;43720;47.462;19.030;2022-11-09T05:36:02;100835.84;;;9.34;100.00
57904;BME280;43720;47.462;19.030;2022-11-09T05:39:05;100832.97;;;9.25;100.00
57904;BME280;43720;47.462;19.030;2022-11-09T05:42:07;100830.75;;;9.07;100.00
57904;BME280;43720;47.462;19.030;2022-11-09T05:45:16;100827.53;;;9.17;100.00
57904;BME280;43720;47.462;19.030;2022-11-09T05:48:40;100820.66;;;9.19;100.00
57904;BME280;43720;47.462;19.030;2022-11-09T05:51:42;100837.37;;;9.27;100.00
57904;BME280;43720;47.462;19.030;2022-11-09T05:54:44;100835.56;;;9.25;100.00
57904;BME280;43720;47.462;19.030;2022-11-09T05:57:47;100842.28;;;9.15;100.00
57904;BME280;43720;47.462;19.030;2022-11-09T06:00:49;100840.87;;;9.28;100.00
57904;BME280;43720;47.462;19.030;2022-11-09T06:03:53;100851.00;;;9.17;100.00
57904;BME280;43720;47.462;19.030;2022-11-09T06:06:55;100844.44;;;9.31;100.00
57904;BME280;43720;47.462;19.030;2022-11-09T06:09:57;100845.31;;;9.32;100.00
57904;BME280;43720;47.462;19.030;2022-11-09T06:13:00;100848.78;;;9.31;100.00
57904;BME280;43720;47.462;19.030;2022-11-09T06:16:03;100852.12;;;9.25;100.00
57904;BME280;43720;47.462;19.030;2022-11-09T06:19:06;100858.34;;;8.99;100.00
57904;BME280;43720;47.462;19.030;2022-11-09T06:22:08;100853.87;;;8.95;100.00
57904;BME280;43720;47.462;19.030;2022-11-09T06:25:11;100846.50;;;9.10;100.00
57904;BME280;43720;47.462;19.030;2022-11-09T06:28:13;100847.31;;;9.09;100.00
57904;BME280;43720;47.462;19.030;2022-11-09T06:31:16;100855.31;;;9.15;100.00
57904;BME280;43720;47.462;19.030;2022-11-09T06:34:18;100868.28;;;9.14;100.00
57904;BME280;43720;47.462;19.030;2022-11-09T06:37:20;100862.50;;;9.24;100.00
57904;BME280;43720;47.462;19.030;2022-11-09T06:40:23;100868.94;;;9.37;100.00
57904;BME280;43720;47.462;19.030;2022-11-09T06:43:25;100858.91;;;9.20;100.00
57904;BME280;43720;47.462;19.030;2022-11-09T06:46:28;100861.09;;;9.05;100.00
57904;BME280;43720;47.462;19.030;2022-11-09T06:49:30;100854.34;;;9.12;100.00
57904;BME280;43720;47.462;19.030;2022-11-09T06:52:33;100859.03;;;9.25;100.00
57904;BME280;43720;47.462;19.030;2022-11-09T06:55:36;100855.94;;;9.06;100.00
57904;BME280;43720;47.462;19.030;2022-11-09T06:58:39;100855.41;;;9.18;100.00
57904;BME280;43720;47.462;19.030;2022-11-09T07:01:41;100858.84;;;9.17;100.00
57904;BME280;43720;47.462;19.030;2022-11-09T07:04:44;100858.91;;;9.20;100.00
57904;BME280;43720;47.462;19.030;2022-11-09T07:07:47;100865.00;;;9.19;100.00
57904;BME280;43720;47.462;19.030;2022-11-09T07:10:50;100867.50;;;9.16;100.00
57904;BME280;43720;47.462;19.030;2022-11-09T07:13:52;100866.59;;;9.14;100.00
57904;BME280;43720;47.462;19.030;2022-11-09T07:16:58;100873.38;;;9.09;100.00
57904;BME280;43720;47.462;19.030;2022-11-09T07:20:01;100866.47;;;8.79;100.00
57904;BME280;43720;47.462;19.030;2022-11-09T07:23:04;100862.88;;;8.76;100.00
57904;BME280;43720;47.462;19.030;2022-11-09T07:26:10;100859.06;;;8.65;100.00
57904;BME280;43720;47.462;19.030;2022-11-09T07:29:21;100854.75;;;8.65;100.00
57904;BME280;43720;47.462;19.030;2022-11-09T07:32:24;100855.97;;;8.78;100.00
57904;BME280;43720;47.462;19.030;2022-11-09T07:35:47;100858.81;;;8.86;100.00
57904;BME280;43720;47.462;19.030;2022-11-09T07:38:49;100866.16;;;8.99;100.00
57904;BME280;43720;47.462;19.030;2022-11-09T07:41:52;100856.06;;;9.11;100.00
57904;BME280;43720;47.462;19.030;2022-11-09T07:44:54;100856.75;;;9.05;100.00
57904;BME280;43720;47.462;19.030;2022-11-09T07:47:58;100856.06;;;9.11;100.00
57904;BME280;43720;47.462;19.030;2022-11-09T07:51:01;100861.81;;;8.99;100.00
57904;BME280;43720;47.462;19.030;2022-11-09T07:54:03;100861.00;;;9.02;100.00
57904;BME280;43720;47.462;19.030;2022-11-09T07:57:06;100859.22;;;8.99;100.00
57904;BME280;43720;47.462;19.030;2022-11-09T08:00:09;100861.97;;;9.05;100.00
57904;BME280;43720;47.462;19.030;2022-11-09T08:03:12;100866.16;;;8.99;100.00
57904;BME280;43720;47.462;19.030;2022-11-09T08:06:14;100869.59;;;8.98;100.00
57904;BME280;43720;47.462;19.030;2022-11-09T08:09:20;100859.31;;;9.02;100.00
57904;BME280;43720;47.462;19.030;2022-11-09T08:12:22;100852.12;;;9.25;100.00
57904;BME280;43720;47.462;19.030;2022-11-09T08:15:25;100859.53;;;9.42;100.00
57904;BME280;43720;47.462;19.030;2022-11-09T08:18:27;100856.47;;;9.58;100.00
57904;BME280;43720;47.462;19.030;2022-11-09T08:21:30;100857.81;;;9.44;100.00
57904;BME280;43720;47.462;19.030;2022-11-09T08:24:32;100851.44;;;9.32;100.00
57904;BME280;43720;47.462;19.030;2022-11-09T08:27:34;100854.31;;;9.42;100.00
57904;BME280;43720;47.462;19.030;2022-11-09T08:30:42;100854.06;;;9.66;100.00
57904;BME280;43720;47.462;19.030;2022-11-09T08:33:44;100850.06;;;9.47;100.00
57904;BME280;43720;47.462;19.030;2022-11-09T08:36:46;100848.22;;;9.43;100.00
57904;BME280;43720;47.462;19.030;2022-11-09T08:39:48;100848.75;;;9.29;100.00
57904;BME280;43720;47.462;19.030;2022-11-09T08:42:51;100852.81;;;9.51;100.00
57904;BME280;43720;47.462;19.030;2022-11-09T08:45:54;100845.84;;;9.52;100.00
57904;BME280;43720;47.462;19.030;2022-11-09T08:48:56;100844.31;;;9.60;100.00
57904;BME280;43720;47.462;19.030;2022-11-09T08:51:59;100837.13;;;9.85;100.00
57904;BME280;43720;47.462;19.030;2022-11-09T08:55:02;100846.03;;;9.93;100.00
57904;BME280;43720;47.462;19.030;2022-11-09T08:58:05;100844.31;;;9.95;100.00
57904;BME280;43720;47.462;19.030;2022-11-09T09:01:07;100843.69;;;10.03;100.00
57904;BME280;43720;47.462;19.030;2022-11-09T09:04:16;100843.34;;;9.90;100.00
57904;BME280;43720;47.462;19.030;2022-11-09T09:07:18;100847.31;;;9.75;100.00
57904;BME280;43720;47.462;19.030;2022-11-09T09:10:20;100848.19;;;9.74;100.00
57904;BME280;43720;47.462;19.030;2022-11-09T09:13:23;100852.62;;;9.78;100.00
57904;BME280;43720;47.462;19.030;2022-11-09T09:16:25;100844.47;;;9.99;100.00
57904;BME280;43720;47.462;19.030;2022-11-09T09:19:28;100843.19;;;10.18;100.00
57904;BME280;43720;47.462;19.030;2022-11-09T09:22:30;100844.22;;;10.25;100.00
57904;BME280;43720;47.462;19.030;2022-11-09T09:25:34;100853.75;;;10.24;100.00
57904;BME280;43720;47.462;19.030;2022-11-09T09:28:37;100847.47;;;10.16;100.00
57904;BME280;43720;47.462;19.030;2022-11-09T09:31:40;100847.09;;;10.37;100.00
57904;BME280;43720;47.462;19.030;2022-11-09T09:34:42;100840.22;;;10.41;100.00
57904;BME280;43720;47.462;19.030;2022-11-09T09:37:44;100840.91;;;10.34;100.00
57904;BME280;43720;47.462;19.030;2022-11-09T09:41:01;100831.56;;;10.42;100.00
57904;BME280;43720;47.462;19.030;2022-11-09T09:44:26;100844.03;;;10.55;100.00
57904;BME280;43720;47.462;19.030;2022-11-09T09:47:52;100833.50;;;10.52;100.00
57904;BME280;43720;47.462;19.030;2022-11-09T09:51:01;100830.69;;;10.43;100.00
57904;BME280;43720;47.462;19.030;2022-11-09T09:54:15;100829.75;;;10.41;100.00
57904;BME280;43720;47.462;19.030;2022-11-09T09:57:20;100824.94;;;10.59;100.00
57904;BME280;43720;47.462;19.030;2022-11-09T10:00:25;100821.81;;;10.35;100.00
57904;BME280;43720;47.462;19.030;2022-11-09T10:03:29;100822.78;;;10.41;100.00
57904;BME280;43720;47.462;19.030;2022-11-09T10:17:17;100808.19;;;10.49;100.00
57904;BME280;43720;47.462;19.030;2022-11-09T10:20:32;100804.97;;;10.63;100.00
57904;BME280;43720;47.462;19.030;2022-11-09T10:23:51;100801.56;;;10.67;100.00
57904;BME280;43720;47.462;19.030;2022-11-09T10:26:58;100802.97;;;10.51;100.00
57904;BME280;43720;47.462;19.030;2022-11-09T10:30:14;100801.88;;;10.40;100.00
57904;BME280;43720;47.462;19.030;2022-11-09T10:33:19;100800.56;;;10.60;100.00
57904;BME280;43720;47.462;19.030;2022-11-09T10:36:42;100799.13;;;10.76;100.00
57904;BME280;43720;47.462;19.030;2022-11-09T10:40:20;100797.44;;;10.76;100.00
57904;BME280;43720;47.462;19.030;2022-11-09T10:43:42;100792.84;;;10.66;100.00
57904;BME280;43720;47.462;19.030;2022-11-09T10:47:14;100795.63;;;10.75;100.00
57904;BME280;43720;47.462;19.030;2022-11-09T10:50:48;100792.13;;;10.73;100.00
57904;BME280;43720;47.462;19.030;2022-11-09T10:54:20;100782.84;;;10.89;100.00
57904;BME280;43720;47.462;19.030;2022-11-09T10:58:57;100770.78;;;10.96;100.00
57904;BME280;43720;47.462;19.030;2022-11-09T11:01:55;100779.28;;;10.86;100.00
57904;BME280;43720;47.462;19.030;2022-11-09T11:05:25;100767.12;;;10.88;100.00
57904;BME280;43720;47.462;19.030;2022-11-09T11:12:14;100777.41;;;10.80;100.00
57904;BME280;43720;47.462;19.030;2022-11-09T11:15:38;100770.22;;;10.68;100.00
57904;BME280;43720;47.462;19.030;2022-11-09T11:19:01;100764.97;;;10.67;100.00
57904;BME280;43720;47.462;19.030;2022-11-09T11:22:23;100762.34;;;10.67;100.00
57904;BME280;43720;47.462;19.030;2022-11-09T11:29:43;100756.09;;;10.59;100.00
57904;BME280;43720;47.462;19.030;2022-11-09T11:33:14;100759.72;;;10.65;100.00
57904;BME280;43720;47.462;19.030;2022-11-09T11:37:02;100757.81;;;10.58;100.00
57904;BME280;43720;47.462;19.030;2022-11-09T11:40:37;100763.28;;;10.69;100.00
57904;BME280;43720;47.462;19.030;2022-11-09T11:47:59;100757.62;;;10.49;100.00
57904;BME280;43720;47.462;19.030;2022-11-09T12:13:38;100740.31;;;10.99;100.00
57904;BME280;43720;47.462;19.030;2022-11-09T12:17:29;100740.16;;;10.92;100.00
57904;BME280;43720;47.462;19.030;2022-11-09T12:21:28;100747.25;;;10.96;100.00
57904;BME280;43720;47.462;19.030;2022-11-09T12:24:59;100733.75;;;10.74;100.00
57904;BME280;43720;47.462;19.030;2022-11-09T12:28:42;100737.16;;;10.70;100.00
57904;BME280;43720;47.462;19.030;2022-11-09T12:32:24;100742.25;;;10.64;100.00
57904;BME280;43720;47.462;19.030;2022-11-09T12:35:54;100743.25;;;10.71;100.00
57904;BME280;43720;47.462;19.030;2022-11-09T12:39:28;100735.00;;;10.95;100.00
57904;BME280;43720;47.462;19.030;2022-11-09T12:46:12;100736.28;;;10.71;100.00
57904;BME280;43720;47.462;19.030;2022-11-09T12:49:43;100735.31;;;10.65;100.00
57904;BME280;43720;47.462;19.030;2022-11-09T12:53:04;100735.31;;;10.65;100.00
57904;BME280;43720;47.462;19.030;2022-11-09T12:56:30;100723.50;;;10.85;100.00
57904;BME280;43720;47.462;19.030;2022-11-09T12:59:54;100727.59;;;10.72;100.00
57904;BME280;43720;47.462;19.030;2022-11-09T13:03:21;100718.25;;;10.85;100.00
57904;BME280;43720;47.462;19.030;2022-11-09T13:10:34;100719.81;;;10.75;100.00
57904;BME280;43720;47.462;19.030;2022-11-09T13:18:00;100718.34;;;10.91;100.00
57904;BME280;43720;47.462;19.030;2022-11-09T13:28:39;100705.63;;;11.10;100.00
57904;BME280;43720;47.462;19.030;2022-11-09T13:32:23;100702.91;;;11.05;100.00
57904;BME280;43720;47.462;19.030;2022-11-09T13:46:38;100715.44;;;10.76;100.00
57904;BME280;43720;47.462;19.030;2022-11-09T13:49:58;100715.16;;;10.61;100.00
57904;BME280;43720;47.462;19.030;2022-11-09T13:56:52;100702.94;;;10.60;100.00
57904;BME280;43720;47.462;19.030;2022-11-09T14:00:19;100707.75;;;10.38;100.00
57904;BME280;43720;47.462;19.030;2022-11-09T14:03:50;100708.59;;;10.37;100.00
57904;BME280;43720;47.462;19.030;2022-11-09T14:07:18;100707.63;;;10.34;100.00
57904;BME280;43720;47.462;19.030;2022-11-09T14:21:39;100718.87;;;10.29;100.00
57904;BME280;43720;47.462;19.030;2022-11-09T14:25:08;100708.63;;;10.39;100.00
57904;BME280;43720;47.462;19.030;2022-11-09T14:28:32;100704.44;;;10.45;100.00
57904;BME280;43720;47.462;19.030;2022-11-09T14:31:54;100705.31;;;10.46;100.00
57904;BME280;43720;47.462;19.030;2022-11-09T14:35:34;100704.53;;;10.53;100.00
57904;BME280;43720;47.462;19.030;2022-11-09T14:38:56;100707.38;;;10.62;100.00
57904;BME280;43720;47.462;19.030;2022-11-09T14:42:20;100699.38;;;10.56;100.00
57904;BME280;43720;47.462;19.030;2022-11-09T14:45:51;100702.63;;;10.44;100.00
57904;BME280;43720;47.462;19.030;2022-11-09T14:49:12;100704.28;;;10.39;100.00
57904;BME280;43720;47.462;19.030;2022-11-09T14:52:33;100703.47;;;10.42;100.00
57904;BME280;43720;47.462;19.030;2022-11-09T14:55:56;100703.75;;;10.56;100.00
57904;BME280;43720;47.462;19.030;2022-11-09T14:59:23;100714.66;;;10.35;100.00
57904;BME280;43720;47.462;19.030;2022-11-09T15:02:45;100714.91;;;10.47;100.00
57904;BME280;43720;47.462;19.030;2022-11-09T15:06:11;100704.84;;;10.68;100.00
57904;BME280;43720;47.462;19.030;2022-11-09T15:09:40;100706.78;;;10.78;100.00
57904;BME280;43720;47.462;19.030;2022-11-09T15:13:02;100710.12;;;10.71;100.00
57904;BME280;43720;47.462;19.030;2022-11-09T15:16:27;100709.91;;;10.59;100.00
57904;BME280;43720;47.462;19.030;2022-11-09T15:19:57;100711.72;;;10.63;100.00
57904;BME280;43720;47.462;19.030;2022-11-09T15:23:33;100720.84;;;10.40;100.00
57904;BME280;43720;47.462;19.030;2022-11-09T15:26:56;100713.19;;;10.49;100.00
57904;BME280;43720;47.462;19.030;2022-11-09T15:34:23;100701.22;;;10.60;100.00
57904;BME280;43720;47.462;19.030;2022-11-09T15:37:49;100702.44;;;10.77;100.00
57904;BME280;43720;47.462;19.030;2022-11-09T15:41:19;100707.47;;;10.68;100.00
57904;BME280;43720;47.462;19.030;2022-11-09T15:44:40;100709.66;;;10.45;100.00
57904;BME280;43720;47.462;19.030;2022-11-09T15:48:00;100708.78;;;10.46;100.00
57904;BME280;43720;47.462;19.030;2022-11-09T15:51:21;100711.31;;;10.42;100.00
57904;BME280;43720;47.462;19.030;2022-11-09T15:54:42;100707.22;;;10.55;100.00
57904;BME280;43720;47.462;19.030;2022-11-09T15:58:10;100713.69;;;10.73;100.00
57904;BME280;43720;47.462;19.030;2022-11-09T16:01:32;100710.12;;;10.71;100.00
57904;BME280;43720;47.462;19.030;2022-11-09T16:04:52;100705.56;;;10.60;100.00
57904;BME280;43720;47.462;19.030;2022-11-09T16:08:13;100711.50;;;10.51;100.00
57904;BME280;43720;47.462;19.030;2022-11-09T16:11:34;100716.56;;;10.43;100.00
57904;BME280;43720;47.462;19.030;2022-11-09T16:14:55;100713.25;;;10.52;100.00
57904;BME280;43720;47.462;19.030;2022-11-09T16:18:16;100716.22;;;10.70;100.00
57904;BME280;43720;47.462;19.030;2022-11-09T16:21:45;100720.38;;;10.59;100.00
57904;BME280;43720;47.462;19.030;2022-11-09T16:25:05;100715.34;;;10.70;100.00
57904;BME280;43720;47.462;19.030;2022-11-09T16:28:26;100711.72;;;10.62;100.00
57904;BME280;43720;47.462;19.030;2022-11-09T16:31:47;100713.47;;;10.63;100.00
